Scranton, Kansas
Current Conditions -  °F | °C
As of 8:53 PM on Friday 31 Oct 2014 (Local Time) from KFOE Reporting Station
Clear Clear  
Wind Chill: 29°   Ceiling: Unl
Heat Index: 33°   Visibility: 10mi
Dew Point: 23°   Wind: 5mph
Humidity: 66%   Direction: 40°NE
Pressure: 30.45"   Gusts: NA
Location:  38.78°N, 95.74°W
Report Text: KFOE 010153Z 04004KT 10SM CLR 01/M05 A3045 RMK AO2 SLP319 T00061050
Loading
Personal Weather Stations






























Interactive Weather Map
Tropical Storm Tracking
New forecast layout! Learn more

10-Day Weather Forecast

Advertisements
Track Severe Weather on mobile